Time;durP1;ratioP1;P1;durP2;ratioP2;P2;SDS_P1;SDS_P2;PMS_P1;PMS_P2;Temp;Humidity;BMP_temperature;BMP_pressure;BME280_temperature;BME280_humidity;BME280_pressure;Samples;Min_cycle;Max_cycle;Signal;HPM_P1;HPM_P2
2023/03/23 00:03:01;;;;;;;2.05;1.55;;;;;;;14.50;87.55;99489.63;8360301;28;20071;-61
2023/03/23 00:07:02;;;;;;;4.22;1.67;;;;;;;14.50;87.46;99496.91;8359134;28;20045;-58
2023/03/23 00:11:04;;;;;;;4.53;2.35;;;;;;;14.57;86.52;99490.53;8360634;28;20495;-59
2023/03/23 00:15:08;;;;;;;3.45;1.90;;;;;;;14.58;86.61;99497.66;8360459;28;20048;-59
2023/03/23 00:19:14;;;;;;;7.75;2.25;;;;;;;14.64;86.51;99501.50;8361488;28;20087;-59
2023/03/23 00:23:19;;;;;;;3.00;2.10;;;;;;;14.66;86.27;99510.28;8360767;28;20045;-58
2023/03/23 00:27:22;;;;;;;2.47;1.60;;;;;;;14.68;85.44;99497.34;8360521;28;20407;-59
2023/03/23 00:31:22;;;;;;;2.75;1.58;;;;;;;14.67;86.03;99484.81;8360748;28;20041;-58
2023/03/23 00:35:23;;;;;;;1.80;1.45;;;;;;;14.67;85.86;99480.19;8360274;28;20033;-59
2023/03/23 00:39:26;;;;;;;2.85;2.00;;;;;;;14.69;85.75;99486.28;8360503;28;20056;-59
2023/03/23 00:43:28;;;;;;;2.70;1.83;;;;;;;14.67;86.14;99493.78;8359720;28;20045;-58
2023/03/23 00:47:30;;;;;;;2.58;1.77;;;;;;;14.71;85.42;99467.91;8359376;28;20503;-58
2023/03/23 00:51:31;;;;;;;2.80;2.05;;;;;;;14.73;85.34;99468.53;8360048;28;20041;-58
2023/03/23 00:55:33;;;;;;;5.32;2.00;;;;;;;14.72;85.51;99466.84;8359446;28;20036;-58
2023/03/23 00:59:34;;;;;;;3.22;1.90;;;;;;;14.67;85.64;99463.84;8358127;28;20040;-60
2023/03/23 01:03:36;;;;;;;2.90;1.85;;;;;;;14.62;85.90;99470.91;8358944;28;20047;-59
2023/03/23 01:07:37;;;;;;;2.85;1.80;;;;;;;14.69;85.48;99469.97;8359666;28;20037;-59
2023/03/23 01:11:38;;;;;;;2.53;2.17;;;;;;;14.72;85.40;99466.84;8358697;28;20040;-54
2023/03/23 01:15:40;;;;;;;6.25;2.05;;;;;;;14.69;85.68;99461.78;8345930;28;20401;-54
2023/03/23 01:19:42;;;;;;;2.17;1.70;;;;;;;14.62;86.29;99471.78;8326346;28;20041;-55
2023/03/23 01:23:43;;;;;;;4.13;1.95;;;;;;;14.68;85.83;99464.72;8352727;28;20057;-53
2023/03/23 01:27:43;;;;;;;4.75;2.30;;;;;;;14.67;86.37;99463.84;8357115;28;20366;-54
2023/03/23 01:31:44;;;;;;;3.30;1.92;;;;;;;14.60;87.47;99457.50;8358827;28;20033;-54
2023/03/23 01:35:45;;;;;;;4.90;2.38;;;;;;;14.44;89.56;99462.31;8358773;28;20056;-55
2023/03/23 01:39:46;;;;;;;3.50;2.13;;;;;;;14.30;92.10;99455.06;8358139;28;20067;-54
2023/03/23 01:44:03;;;;;;;5.72;2.40;;;;;;;14.06;95.79;99458.88;8358159;28;20049;-54
2023/03/23 01:48:31;;;;;;;4.93;2.55;;;;;;;13.91;97.65;99460.78;8325447;28;20517;-54
2023/03/23 01:52:33;;;;;;;2.65;2.20;;;;;;;13.81;98.61;99449.34;8343228;28;20513;-54
2023/03/23 01:56:41;;;;;;;3.33;2.40;;;;;;;13.79;98.59;99435.13;8357962;28;20093;-54
2023/03/23 02:00:43;;;;;;;5.25;2.22;;;;;;;13.77;98.92;99458.91;8358043;28;20041;-54
2023/03/23 02:04:44;;;;;;;4.15;2.20;;;;;;;13.79;97.91;99435.13;8357623;28;20044;-54
2023/03/23 02:08:49;;;;;;;2.50;1.90;;;;;;;13.78;97.92;99431.53;8356956;28;20040;-54
2023/03/23 02:12:50;;;;;;;2.25;2.00;;;;;;;13.82;98.40;99411.09;8357214;28;20515;-54
2023/03/23 02:22:01;;;;;;;2.90;1.67;;;;;;;13.76;97.63;99373.00;8351818;27;20475;-53
2023/03/23 02:31:13;;;;;;;5.60;2.00;;;;;;;13.88;95.04;99358.75;8406010;27;20205;-53
2023/03/23 02:35:37;;;;;;;2.13;1.63;;;;;;;14.07;92.79;99367.31;8419447;27;20044;-53
2023/03/23 02:39:43;;;;;;;2.80;1.90;;;;;;;14.07;92.12;99373.63;8419252;28;20456;-53
2023/03/23 02:43:45;;;;;;;3.35;2.13;;;;;;;13.94;93.71;99394.34;8402867;28;20036;-53
2023/03/23 02:47:50;;;;;;;3.08;1.80;;;;;;;13.86;94.11;99389.84;8401910;27;20041;-54
2023/03/23 02:51:52;;;;;;;;;;;;;;;13.90;93.88;99396.59;8401527;27;20514;-59
2023/03/23 02:55:55;;;;;;;3.28;2.05;;;;;;;13.88;93.92;99400.53;8403504;27;19922;-59
2023/03/23 02:59:58;;;;;;;2.75;1.83;;;;;;;13.85;93.61;99390.91;8401761;27;20124;-60
2023/03/23 03:04:06;;;;;;;3.50;1.98;;;;;;;13.80;94.16;99377.03;8386067;28;20037;-60
2023/03/23 03:08:48;;;;;;;3.92;1.60;;;;;;;13.76;95.04;99381.16;8385973;28;20112;-60
2023/03/23 03:13:28;;;;;;;2.30;1.67;;;;;;;13.76;94.77;99378.44;8385332;28;20103;-60
2023/03/23 03:17:31;;;;;;;3.53;1.60;;;;;;;13.82;94.17;99375.78;8368993;28;20503;-61
2023/03/23 03:21:37;;;;;;;2.38;1.60;;;;;;;13.84;93.97;99386.47;8388067;28;20045;-61
2023/03/23 03:25:41;;;;;;;2.33;1.38;;;;;;;13.84;93.79;99389.19;8400835;27;20037;-61
2023/03/23 03:29:45;;;;;;;2.75;1.42;;;;;;;13.84;93.38;99394.63;8401890;27;20036;-55
2023/03/23 03:33:46;;;;;;;4.85;1.45;;;;;;;13.81;93.81;99400.44;8400853;27;20075;-54
2023/03/23 03:37:47;;;;;;;1.77;1.30;;;;;;;13.84;93.38;99387.31;8401206;27;20541;-54
2023/03/23 03:41:48;;;;;;;2.75;1.75;;;;;;;13.83;93.35;99393.81;8379124;28;20506;-54
2023/03/23 03:45:49;;;;;;;2.17;1.70;;;;;;;13.81;93.68;99395.84;8377597;28;20480;-54
2023/03/23 03:49:50;;;;;;;2.40;1.50;;;;;;;13.79;93.95;99402.50;8365673;28;20121;-60
2023/03/23 03:53:51;;;;;;;3.88;1.52;;;;;;;13.84;93.83;99389.19;8374610;28;20049;-60
2023/03/23 03:57:51;;;;;;;2.13;1.70;;;;;;;13.95;92.78;99386.00;8378933;28;20041;-60
2023/03/23 04:02:14;;;;;;;1.83;1.30;;;;;;;13.96;92.61;99387.69;8364480;28;20127;-60
2023/03/23 04:06:16;;;;;;;1.90;1.63;;;;;;;13.84;93.05;99359.31;8361063;28;20037;-58
2023/03/23 04:10:19;;;;;;;2.08;1.88;;;;;;;14.00;92.53;99356.38;8361433;28;20056;-60
2023/03/23 04:14:20;;;;;;;2.83;2.00;;;;;;;13.96;92.83;99365.94;8371976;28;20041;-54
2023/03/23 04:18:21;;;;;;;3.00;1.73;;;;;;;13.85;93.41;99386.28;8377057;28;20070;-55
2023/03/23 04:22:29;;;;;;;3.88;1.83;;;;;;;13.89;92.60;99389.47;8376591;28;20033;-55
2023/03/23 04:26:30;;;;;;;3.00;1.70;;;;;;;13.89;91.83;99392.19;8377404;28;20044;-54
2023/03/23 04:30:36;;;;;;;3.08;1.80;;;;;;;13.88;91.96;99401.38;8376585;28;20037;-54
2023/03/23 04:34:42;;;;;;;2.40;2.17;;;;;;;13.79;92.78;99397.09;8375857;28;20041;-55
2023/03/23 04:38:43;;;;;;;3.47;1.98;;;;;;;13.88;91.70;99412.25;8376040;28;20040;-55
2023/03/23 04:42:51;;;;;;;5.60;2.42;;;;;;;13.91;90.65;99395.56;8376022;28;20116;-55
2023/03/23 04:47:02;;;;;;;8.43;2.25;;;;;;;13.93;90.50;99398.94;8376430;28;20037;-54
2023/03/23 04:51:07;;;;;;;10.70;2.70;;;;;;;13.90;89.93;99402.03;8376022;28;20082;-54
2023/03/23 04:55:10;;;;;;;7.15;2.85;;;;;;;13.91;89.95;99417.31;8375950;28;20033;-54
2023/03/23 04:59:14;;;;;;;4.17;2.10;;;;;;;13.88;89.63;99420.41;8371634;28;20491;-55
2023/03/23 05:03:24;;;;;;;4.65;2.30;;;;;;;14.15;87.49;99419.69;8377795;28;20410;-60
2023/03/23 05:07:27;;;;;;;3.33;1.83;;;;;;;14.13;87.47;99412.78;8389203;28;20303;-60
2023/03/23 05:11:30;;;;;;;4.97;1.75;;;;;;;14.11;86.98;99406.66;8343982;28;20073;-60
2023/03/23 05:15:31;;;;;;;3.65;1.58;;;;;;;14.19;85.14;99426.47;8341278;28;20037;-61
2023/03/23 05:19:33;;;;;;;3.50;1.70;;;;;;;14.15;86.00;99425.13;8347710;28;20501;-61
2023/03/23 05:23:42;;;;;;;3.45;2.15;;;;;;;14.19;84.72;99418.31;8341968;28;20147;-60
2023/03/23 05:27:52;;;;;;;4.15;1.73;;;;;;;14.23;83.43;99427.78;8346278;28;20037;-61
2023/03/23 05:32:12;;;;;;;3.85;1.58;;;;;;;14.27;82.38;99431.78;8371481;28;20091;-60
2023/03/23 05:36:13;;;;;;;3.35;1.77;;;;;;;14.33;81.53;99431.03;8374598;28;20523;-60
2023/03/23 05:40:33;;;;;;;5.07;2.00;;;;;;;14.31;81.20;99440.44;8374654;28;20444;-61
2023/03/23 05:44:45;;;;;;;4.03;1.40;;;;;;;14.28;80.94;99430.78;8366392;28;20503;-60
2023/03/23 05:48:46;;;;;;;6.18;1.70;;;;;;;14.30;80.35;99428.69;8375280;28;20478;-60
2023/03/23 05:52:51;;;;;;;;;;;;;;;14.24;80.52;99426.75;8375118;28;20041;-54
2023/03/23 05:56:52;;;;;;;5.22;1.58;;;;;;;14.24;80.22;99434.91;8374832;28;19920;-54
2023/03/23 06:01:00;;;;;;;4.63;1.60;;;;;;;14.18;79.97;99435.63;8367118;28;20090;-55
2023/03/23 06:05:04;;;;;;;6.13;1.58;;;;;;;14.11;80.60;99440.13;8355064;28;20033;-54
2023/03/23 06:09:07;;;;;;;5.20;1.53;;;;;;;14.11;80.58;99442.00;8348561;28;20521;-54
2023/03/23 06:13:28;;;;;;;8.80;1.50;;;;;;;14.22;80.25;99447.81;8377654;28;20044;-54
2023/03/23 06:17:37;;;;;;;5.00;1.42;;;;;;;14.34;79.75;99451.78;8396435;28;20458;-54
2023/03/23 06:21:38;;;;;;;3.85;1.40;;;;;;;14.44;79.77;99463.19;8405265;28;20041;-53
2023/03/23 06:25:48;;;;;;;6.60;1.75;;;;;;;14.38;80.15;99447.63;8370467;28;20071;-54
2023/03/23 06:29:50;;;;;;;4.60;1.48;;;;;;;14.34;80.56;99451.78;8362377;28;20498;-55
2023/03/23 06:33:51;;;;;;;4.07;1.40;;;;;;;14.32;81.07;99459.28;8375387;28;20457;-54
2023/03/23 06:38:10;;;;;;;7.18;1.52;;;;;;;14.32;81.28;99470.16;8308563;28;20784;-53
2023/03/23 06:42:19;;;;;;;10.15;1.85;;;;;;;14.34;81.53;99478.97;8281211;28;20042;-53
2023/03/23 06:46:28;;;;;;;10.27;1.95;;;;;;;14.39;82.30;99492.81;8270356;28;20164;-52
2023/03/23 06:50:45;;;;;;;11.85;1.88;;;;;;;14.43;81.63;99483.25;8370527;27;20378;-56
2023/03/23 06:54:46;;;;;;;5.40;1.98;;;;;;;14.47;81.82;99476.41;8398552;27;20037;-60
2023/03/23 06:58:48;;;;;;;12.60;2.05;;;;;;;14.50;81.66;99478.75;8398957;27;20041;-59
2023/03/23 07:02:48;;;;;;;4.55;1.42;;;;;;;14.55;80.94;99487.16;8383393;28;20461;-59
2023/03/23 07:06:49;;;;;;;2.95;1.30;;;;;;;14.61;80.27;99485.56;8375643;28;20501;-59
2023/03/23 07:10:52;;;;;;;1.85;1.48;;;;;;;14.71;79.42;99488.81;8383420;28;20409;-59
2023/03/23 07:14:56;;;;;;;5.32;1.23;;;;;;;14.80;78.43;99490.38;8382771;28;20052;-59
2023/03/23 07:18:57;;;;;;;3.08;1.27;;;;;;;14.81;78.86;99487.47;8382766;28;20074;-59
2023/03/23 07:22:58;;;;;;;5.70;1.77;;;;;;;14.87;79.01;99485.84;8389957;27;20041;-59
2023/03/23 07:27:19;;;;;;;2.83;1.40;;;;;;;14.95;77.77;99491.19;8398564;27;20387;-59
2023/03/23 07:31:20;;;;;;;5.53;1.58;;;;;;;14.96;77.58;99482.81;8398976;27;20411;-59
2023/03/23 07:35:21;;;;;;;6.45;1.30;;;;;;;15.03;76.71;99486.44;8398941;27;20032;-59
2023/03/23 07:39:30;;;;;;;3.72;1.33;;;;;;;15.05;77.50;99502.59;8399152;27;20047;-59
2023/03/23 07:43:33;;;;;;;10.03;1.23;;;;;;;15.04;77.30;99482.66;8397914;27;20564;-59
2023/03/23 07:47:54;;;;;;;4.47;1.30;;;;;;;15.06;76.47;99488.78;8365950;28;20041;-59
2023/03/23 07:51:55;;;;;;;2.55;1.30;;;;;;;15.15;76.86;99490.34;8377863;27;20089;-59
2023/03/23 07:55:56;;;;;;;4.60;1.10;;;;;;;15.28;75.99;99482.28;8397992;27;20040;-53
2023/03/23 08:00:23;;;;;;;5.28;1.35;;;;;;;15.33;75.53;99493.44;8380974;27;20040;-54
2023/03/23 08:04:27;;;;;;;7.18;1.50;;;;;;;15.40;75.62;99491.63;8358328;28;20037;-53
2023/03/23 08:08:47;;;;;;;5.28;1.35;;;;;;;15.48;75.12;99483.34;8325599;28;20045;-54
2023/03/23 08:13:08;;;;;;;6.03;1.20;;;;;;;15.54;74.45;99484.44;8350373;28;20037;-53
2023/03/23 08:17:28;;;;;;;5.45;1.30;;;;;;;15.63;73.93;99488.69;8358522;28;20036;-53
2023/03/23 08:21:46;;;;;;;8.30;1.95;;;;;;;15.71;72.90;99492.09;8364660;28;20123;-53
2023/03/23 08:26:07;;;;;;;4.53;1.30;;;;;;;15.81;73.15;99502.66;8308416;28;20095;-54
2023/03/23 08:30:25;;;;;;;5.55;1.05;;;;;;;15.88;71.50;99497.25;8305461;28;20169;-53
2023/03/23 08:34:42;;;;;;;3.28;1.23;;;;;;;15.88;71.61;99491.78;8327914;28;20049;-54
2023/03/23 08:39:05;;;;;;;4.38;1.15;;;;;;;15.95;71.72;99506.34;8309085;28;20041;-60
2023/03/23 08:43:25;;;;;;;4.40;1.20;;;;;;;16.08;70.42;99503.69;8308478;28;20116;-59
2023/03/23 08:47:51;;;;;;;5.85;1.75;;;;;;;16.15;70.23;99512.72;8354690;28;20120;-59
2023/03/23 08:52:08;;;;;;;6.40;1.70;;;;;;;16.26;70.62;99523.09;8372019;28;20406;-60
2023/03/23 08:56:24;;;;;;;3.60;0.93;;;;;;;16.30;70.13;99521.63;8390318;28;20347;-60
2023/03/23 09:00:45;;;;;;;6.68;1.30;;;;;;;16.41;70.13;99529.28;8394035;28;20081;-59
2023/03/23 09:04:53;;;;;;;3.25;0.98;;;;;;;16.60;69.43;99534.00;8356740;28;20037;-59
2023/03/23 09:09:14;;;;;;;5.13;1.00;;;;;;;16.69;69.33;99513.69;8350104;28;20060;-59
2023/03/23 09:13:15;;;;;;;2.88;1.25;;;;;;;16.82;69.20;99543.75;8356232;28;20041;-60
2023/03/23 09:17:15;;;;;;;3.00;1.05;;;;;;;16.72;69.09;99540.56;8357049;28;20382;-60
2023/03/23 09:21:16;;;;;;;5.53;1.80;;;;;;;16.72;68.10;99529.66;8364239;28;20036;-59
2023/03/23 09:25:21;;;;;;;5.47;1.35;;;;;;;16.72;68.81;99537.84;8389077;28;20109;-59
2023/03/23 09:29:21;;;;;;;5.90;1.30;;;;;;;16.79;66.44;99527.78;8389626;28;20119;-59
2023/03/23 09:33:22;;;;;;;9.10;1.40;;;;;;;16.75;65.30;99545.63;8389343;28;20036;-60
2023/03/23 09:37:22;;;;;;;8.40;1.38;;;;;;;16.71;66.25;99560.72;8389394;28;20033;-59
2023/03/23 09:50:20;;;;;;;7.07;1.00;;;;;;;16.48;70.23;99543.81;8407191;27;20367;-59
2023/03/23 09:54:34;;;;;;;5.18;1.20;;;;;;;16.62;70.41;99551.03;8399783;27;20040;-58
2023/03/23 09:58:46;;;;;;;2.67;0.77;;;;;;;17.06;69.51;99543.22;8399759;27;20300;-59
2023/03/23 10:03:15;;;;;;;6.75;0.98;;;;;;;17.49;68.46;99547.31;8385886;28;20081;-59
2023/03/23 10:07:18;;;;;;;4.25;0.95;;;;;;;17.09;70.29;99542.81;8382378;28;20526;-58
2023/03/23 10:11:47;;;;;;;1.80;0.90;;;;;;;16.72;71.57;99552.34;8382542;28;20036;-59
2023/03/23 10:15:48;;;;;;;2.97;0.75;;;;;;;16.59;72.79;99559.63;8401248;28;20037;-54
2023/03/23 10:20:09;;;;;;;5.05;0.63;;;;;;;16.66;73.12;99558.63;8382667;28;20036;-53
2023/03/23 10:24:16;;;;;;;3.53;0.60;;;;;;;16.63;74.03;99560.88;8413205;28;20036;-55
2023/03/23 10:28:21;;;;;;;3.50;0.65;;;;;;;16.75;74.46;99542.91;8415375;28;20111;-53
2023/03/23 10:32:40;;;;;;;4.00;0.60;;;;;;;17.23;71.63;99550.00;8414864;28;20499;-53
2023/03/23 10:36:53;;;;;;;2.00;0.50;;;;;;;17.31;71.89;99547.06;8415966;28;20032;-55
2023/03/23 10:40:58;;;;;;;1.45;0.60;;;;;;;17.29;72.00;99549.13;8438424;28;20043;-53
2023/03/23 10:45:10;;;;;;;2.42;0.80;;;;;;;17.15;72.71;99552.91;8414542;28;20419;-53
2023/03/23 10:49:16;;;;;;;1.75;0.50;;;;;;;17.14;73.44;99560.25;8414125;28;20032;-54
2023/03/23 10:53:21;;;;;;;2.60;0.52;;;;;;;17.27;72.50;99557.53;8413111;28;20066;-59
2023/03/23 10:57:28;;;;;;;3.08;0.40;;;;;;;17.90;71.08;99552.59;8414765;28;20040;-59
2023/03/23 11:01:33;;;;;;;1.77;0.50;;;;;;;19.36;66.59;99544.38;8391819;28;20525;-59
2023/03/23 11:05:40;;;;;;;5.05;0.80;;;;;;;19.06;65.62;99546.00;8391605;28;20056;-59
2023/03/23 11:09:53;;;;;;;3.13;0.55;;;;;;;18.78;66.39;99564.66;8390979;28;20508;-59
2023/03/23 11:14:00;;;;;;;3.75;0.60;;;;;;;18.56;66.74;99556.94;8397778;28;20048;-53
2023/03/23 11:18:04;;;;;;;2.85;0.70;;;;;;;18.62;68.41;99551.44;8359228;28;20074;-54
2023/03/23 11:26:30;;;;;;;0.95;0.50;;;;;;;18.51;67.07;99532.94;8319771;28;20401;-54
2023/03/23 11:30:31;;;;;;;0.60;0.25;;;;;;;17.96;68.33;99538.91;8318224;28;20067;-54
2023/03/23 11:34:35;;;;;;;1.30;0.30;;;;;;;17.78;70.08;99538.72;8317316;28;20462;-60
2023/03/23 11:38:36;;;;;;;2.88;0.30;;;;;;;18.50;67.43;99555.06;8317760;28;20045;-60
2023/03/23 11:42:43;;;;;;;1.70;0.40;;;;;;;18.20;69.04;99565.63;8316724;28;20133;-60
2023/03/23 11:47:11;;;;;;;1.45;0.35;;;;;;;18.48;68.64;99538.84;8316143;28;20049;-60
2023/03/23 11:51:17;;;;;;;1.35;0.50;;;;;;;18.04;69.12;99549.66;8316435;28;20041;-59
2023/03/23 11:55:35;;;;;;;5.22;0.40;;;;;;;17.98;70.72;99561.44;8311710;28;20091;-60
2023/03/23 11:59:41;;;;;;;0.63;0.40;;;;;;;17.73;72.05;99563.13;8305479;28;20041;-59
2023/03/23 12:08:23;;;;;;;3.80;0.50;;;;;;;19.17;67.16;99552.69;8405791;27;20476;-59
2023/03/23 12:12:49;;;;;;;2.05;0.60;;;;;;;19.52;65.00;99546.59;8401523;27;20044;-59
2023/03/23 12:26:07;;;;;;;3.90;0.70;;;;;;;18.09;68.72;99558.06;8414879;27;20357;-59
2023/03/23 12:30:47;;;;;;;5.88;1.00;;;;;;;17.89;71.44;99556.38;8400526;27;20086;-59
2023/03/23 12:39:48;;;;;;;2.03;0.60;;;;;;;17.85;70.89;99545.03;8351847;27;20376;-59
2023/03/23 12:48:09;;;;;;;1.90;0.70;;;;;;;17.93;70.34;99550.28;8360583;27;20427;-53
2023/03/23 12:52:24;;;;;;;1.60;0.82;;;;;;;17.75;70.68;99550.06;8334080;28;20403;-53
2023/03/23 12:56:32;;;;;;;6.75;1.00;;;;;;;17.67;71.59;99557.63;8317050;28;20504;-54
2023/03/23 13:00:57;;;;;;;3.53;0.77;;;;;;;17.67;71.31;99574.03;8305130;28;20038;-54
2023/03/23 13:05:27;;;;;;;3.28;1.10;;;;;;;17.49;72.01;99580.13;8314090;28;20496;-54
2023/03/23 13:09:39;;;;;;;4.28;0.80;;;;;;;17.29;71.94;99581.91;8315936;28;20420;-54
2023/03/23 13:13:47;;;;;;;1.83;0.65;;;;;;;17.34;71.13;99574.81;8316790;28;20042;-53
2023/03/23 13:18:27;;;;;;;3.20;0.70;;;;;;;17.30;72.13;99572.69;8315542;28;20447;-60
2023/03/23 13:22:53;;;;;;;3.15;0.50;;;;;;;16.87;74.12;99577.56;8316444;28;20045;-60
2023/03/23 13:26:57;;;;;;;4.20;0.65;;;;;;;16.65;75.54;99567.81;8314965;28;20111;-59
2023/03/23 13:31:12;;;;;;;3.80;0.73;;;;;;;16.67;76.08;99564.88;8316491;28;20065;-59
2023/03/23 13:35:16;;;;;;;3.22;0.95;;;;;;;17.13;75.85;99571.38;8315447;28;20536;-60
2023/03/23 13:39:20;;;;;;;2.20;0.90;;;;;;;17.38;76.31;99569.75;8316638;28;20044;-60
2023/03/23 13:43:31;;;;;;;3.15;1.00;;;;;;;17.69;76.33;99567.34;8315207;28;20033;-60
2023/03/23 13:47:38;;;;;;;2.55;0.80;;;;;;;17.58;75.16;99562.47;8314784;28;20133;-60
2023/03/23 13:56:17;;;;;;;3.55;1.10;;;;;;;18.13;73.10;99570.25;8405034;27;20397;-59
2023/03/23 14:04:40;;;;;;;4.35;1.70;;;;;;;18.25;71.52;99554.88;8407892;27;20729;-58
2023/03/23 14:08:44;;;;;;;6.32;1.10;;;;;;;18.06;70.47;99569.44;8397741;27;20036;-58
2023/03/23 14:12:46;;;;;;;7.10;1.30;;;;;;;17.90;71.32;99553.44;8395194;27;20124;-59
2023/03/23 14:16:51;;;;;;;5.55;1.30;;;;;;;17.52;72.47;99555.09;8392630;27;20503;-59
2023/03/23 14:20:52;;;;;;;6.43;1.40;;;;;;;17.43;73.62;99545.44;8368179;28;20062;-59
2023/03/23 14:25:00;;;;;;;7.25;1.70;;;;;;;17.35;73.23;99549.16;8394947;27;20098;-59
2023/03/23 14:29:03;;;;;;;7.65;1.60;;;;;;;17.25;71.89;99553.34;8397246;27;20044;-59
2023/03/23 14:33:07;;;;;;;3.08;1.48;;;;;;;17.09;74.39;99561.91;8395292;27;20483;-59
2023/03/23 14:37:12;;;;;;;4.43;1.23;;;;;;;17.06;73.14;99554.13;8369333;28;20528;-59
2023/03/23 14:41:13;;;;;;;7.68;1.40;;;;;;;17.27;73.05;99567.66;8395398;27;20043;-59
2023/03/23 14:45:17;;;;;;;4.03;1.20;;;;;;;17.45;72.17;99565.19;8396190;27;20228;-59
2023/03/23 14:49:25;;;;;;;6.93;1.40;;;;;;;17.55;70.87;99568.34;8395035;27;20445;-59
2023/03/23 14:53:38;;;;;;;4.95;1.27;;;;;;;17.71;70.59;99559.75;8395053;27;20064;-59
2023/03/23 14:57:41;;;;;;;3.65;1.40;;;;;;;17.57;71.41;99552.59;8399506;27;20502;-59
2023/03/23 15:01:44;;;;;;;6.90;1.60;;;;;;;17.58;70.48;99543.34;8382927;27;20033;-59
2023/03/23 15:05:50;;;;;;;5.82;1.30;;;;;;;17.53;71.38;99523.97;8382225;27;20032;-59
2023/03/23 15:09:50;;;;;;;5.30;1.40;;;;;;;17.46;70.14;99524.00;8370856;28;20036;-59
2023/03/23 15:13:54;;;;;;;3.22;1.67;;;;;;;17.66;70.33;99512.22;8359182;27;20032;-59
2023/03/23 15:17:56;;;;;;;10.27;1.95;;;;;;;17.77;69.75;99496.03;8361022;28;20146;-59
2023/03/23 15:22:05;;;;;;;8.15;2.00;;;;;;;17.77;70.46;99497.91;8348918;28;20044;-59
2023/03/23 15:26:19;;;;;;;7.55;1.55;;;;;;;17.60;70.11;99475.66;8358367;28;20368;-59
2023/03/23 15:34:39;;;;;;;4.22;1.52;;;;;;;17.63;69.90;99497.09;8345232;27;20384;-59
2023/03/23 15:38:43;;;;;;;5.07;1.40;;;;;;;17.59;69.87;99499.41;8362274;28;20175;-60
2023/03/23 15:42:44;;;;;;;6.22;1.67;;;;;;;17.76;69.22;99502.56;8367321;28;20537;-59
2023/03/23 15:47:02;;;;;;;5.30;1.33;;;;;;;17.67;68.18;99503.81;8337337;28;20427;-62
2023/03/23 15:51:03;;;;;;;3.20;1.42;;;;;;;17.60;66.88;99492.06;8347335;28;20103;-53
2023/03/23 15:55:25;;;;;;;4.30;1.42;;;;;;;17.65;68.25;99497.72;8340155;28;20061;-55
2023/03/23 15:59:25;;;;;;;5.30;1.45;;;;;;;17.66;68.56;99480.28;8317462;28;20037;-53
2023/03/23 16:03:30;;;;;;;3.40;1.40;;;;;;;17.70;66.92;99476.06;8344542;28;20127;-60
2023/03/23 16:07:30;;;;;;;3.65;1.80;;;;;;;17.60;67.72;99479.22;8342486;28;20107;-60
2023/03/23 16:11:32;;;;;;;6.10;1.58;;;;;;;17.63;66.62;99480.69;8341202;28;20414;-60
2023/03/23 16:15:33;;;;;;;7.47;1.58;;;;;;;17.57;66.71;99476.88;8339992;28;20072;-60
2023/03/23 16:19:33;;;;;;;4.55;1.60;;;;;;;17.45;68.26;99477.75;8323922;28;20116;-60
2023/03/23 16:23:34;;;;;;;3.92;1.50;;;;;;;17.37;66.62;99486.09;8313282;28;20377;-54
2023/03/23 16:27:35;;;;;;;3.22;1.45;;;;;;;17.41;66.58;99487.38;8330076;28;20087;-54
2023/03/23 16:31:35;;;;;;;6.25;1.98;;;;;;;17.38;66.81;99482.31;8336363;28;20141;-54
2023/03/23 16:35:36;;;;;;;4.47;1.58;;;;;;;17.26;67.21;99473.09;8328037;28;20041;-53
2023/03/23 16:39:37;;;;;;;8.85;1.98;;;;;;;17.29;68.71;99489.03;8334383;28;20406;-53
2023/03/23 16:43:37;;;;;;;3.97;1.90;;;;;;;17.06;69.29;99483.97;8332824;28;20514;-54
2023/03/23 16:47:39;;;;;;;3.58;1.63;;;;;;;16.93;69.68;99488.56;8318484;28;20479;-54
2023/03/23 16:51:39;;;;;;;8.65;1.70;;;;;;;16.83;70.00;99494.41;8320272;28;20360;-53
2023/03/23 16:55:40;;;;;;;7.78;1.88;;;;;;;16.76;70.10;99503.63;8320879;28;20045;-54
2023/03/23 16:59:41;;;;;;;10.27;1.90;;;;;;;16.70;70.60;99504.44;8322720;28;20094;-54
2023/03/23 17:03:42;;;;;;;6.30;1.70;;;;;;;16.64;70.24;99507.97;8320332;28;20057;-54
2023/03/23 17:07:42;;;;;;;5.10;1.50;;;;;;;16.51;71.13;99516.13;8319816;28;20033;-54
2023/03/23 17:11:43;;;;;;;5.88;1.60;;;;;;;16.42;71.74;99525.50;8307766;28;20381;-53
2023/03/23 17:15:44;;;;;;;4.13;1.73;;;;;;;16.29;72.34;99518.09;8304458;28;20530;-54
2023/03/23 17:19:45;;;;;;;6.25;1.90;;;;;;;16.27;72.51;99514.72;8304752;28;20060;-53
2023/03/23 17:23:45;;;;;;;7.47;1.67;;;;;;;16.17;72.49;99513.38;8321336;28;20038;-54
2023/03/23 17:27:46;;;;;;;5.78;2.00;;;;;;;16.10;73.07;99501.59;8296655;28;20049;-55
2023/03/23 17:31:46;;;;;;;7.88;2.35;;;;;;;16.07;72.86;99504.75;8299998;28;20049;-55
2023/03/23 17:35:50;;;;;;;4.80;1.70;;;;;;;16.12;73.15;99510.41;8347471;28;20037;-55
2023/03/23 17:39:50;;;;;;;5.20;2.05;;;;;;;16.14;72.82;99513.78;8322027;28;20033;-53
2023/03/23 17:43:51;;;;;;;5.50;2.20;;;;;;;16.14;72.80;99508.34;8323972;28;20056;-54
2023/03/23 17:47:51;;;;;;;8.32;1.90;;;;;;;16.11;72.72;99509.59;8320333;28;20052;-54
2023/03/23 17:51:52;;;;;;;5.90;1.80;;;;;;;16.01;73.34;99522.72;8303017;28;20042;-53
2023/03/23 17:55:52;;;;;;;5.72;1.67;;;;;;;16.05;73.31;99509.53;8323267;28;20049;-54
2023/03/23 17:59:53;;;;;;;8.57;1.88;;;;;;;16.03;73.68;99507.00;8308077;28;20075;-52
2023/03/23 18:03:53;;;;;;;6.68;1.60;;;;;;;16.01;73.44;99513.72;8323658;28;20041;-52
2023/03/23 18:07:54;;;;;;;5.55;2.10;;;;;;;16.00;73.70;99512.00;8323448;28;20037;-59
2023/03/23 18:11:55;;;;;;;7.88;2.08;;;;;;;15.98;73.89;99503.22;8320992;28;20049;-59
2023/03/23 18:15:56;;;;;;;4.85;1.48;;;;;;;15.97;73.58;99486.00;8299036;28;20419;-53
2023/03/23 18:19:56;;;;;;;4.53;2.03;;;;;;;15.97;73.63;99491.44;8322793;28;20086;-53
2023/03/23 18:23:57;;;;;;;6.35;1.60;;;;;;;15.96;73.90;99486.19;8322853;28;20041;-53
2023/03/23 18:27:57;;;;;;;4.00;1.50;;;;;;;15.99;73.53;99483.91;8322606;28;20041;-53
2023/03/23 18:31:58;;;;;;;7.63;1.95;;;;;;;16.00;73.64;99484.75;8323168;28;20053;-53
2023/03/23 18:36:00;;;;;;;5.60;1.85;;;;;;;16.00;73.47;99479.28;8324733;28;20053;-52
2023/03/23 18:40:01;;;;;;;6.72;2.17;;;;;;;16.04;73.43;99475.97;8322547;28;20123;-53
2023/03/23 18:44:02;;;;;;;5.22;1.98;;;;;;;16.01;73.24;99481.00;8322352;28;20099;-54
2023/03/23 18:48:04;;;;;;;8.48;2.33;;;;;;;15.95;73.99;99465.44;8319280;28;20292;-59
2023/03/23 18:52:05;;;;;;;7.30;1.90;;;;;;;15.99;73.94;99444.91;8323104;28;20041;-59
2023/03/23 18:56:09;;;;;;;7.03;1.90;;;;;;;15.96;74.15;99448.88;8316034;28;20511;-59
2023/03/23 19:00:10;;;;;;;7.60;1.65;;;;;;;15.87;74.66;99439.19;8333804;28;20175;-59
2023/03/23 19:04:12;;;;;;;8.60;1.90;;;;;;;15.80;75.13;99432.00;8320273;28;20569;-57
2023/03/23 19:08:12;;;;;;;6.05;1.85;;;;;;;15.74;75.07;99431.75;8319814;28;20034;-53
2023/03/23 19:12:14;;;;;;;11.98;2.53;;;;;;;15.76;75.42;99414.38;8319200;28;20045;-53
2023/03/23 19:16:15;;;;;;;4.47;1.52;;;;;;;15.83;75.27;99431.59;8320776;28;20037;-53
2023/03/23 19:20:15;;;;;;;5.72;1.73;;;;;;;15.75;75.74;99432.59;8320751;28;20037;-53
2023/03/23 19:24:16;;;;;;;6.15;1.88;;;;;;;15.77;75.93;99432.41;8320180;28;20041;-54
2023/03/23 19:28:18;;;;;;;4.55;2.25;;;;;;;15.74;76.29;99430.94;8320878;28;20403;-53
2023/03/23 19:32:19;;;;;;;4.47;1.77;;;;;;;15.83;75.70;99435.19;8318155;28;20049;-54
2023/03/23 19:36:21;;;;;;;3.78;1.77;;;;;;;15.84;75.63;99430.56;8320755;28;20208;-53
2023/03/23 19:40:22;;;;;;;5.30;1.77;;;;;;;16.02;74.71;99433.59;8319820;28;20072;-52
2023/03/23 19:44:22;;;;;;;4.85;1.63;;;;;;;15.96;74.82;99445.31;8319661;28;20033;-53
2023/03/23 19:48:24;;;;;;;4.95;1.92;;;;;;;15.90;75.40;99443.38;8315523;28;20091;-53
2023/03/23 19:52:26;;;;;;;3.30;1.75;;;;;;;15.74;76.17;99439.09;8318378;28;20041;-59
2023/03/23 19:56:29;;;;;;;7.57;2.00;;;;;;;15.73;76.21;99424.63;8319144;28;20148;-60
2023/03/23 20:00:30;;;;;;;6.15;2.13;;;;;;;15.73;76.07;99424.63;8311110;28;20045;-52
2023/03/23 20:04:30;;;;;;;8.27;1.83;;;;;;;15.58;77.08;99415.72;8320231;28;20042;-53
2023/03/23 20:08:31;;;;;;;6.85;1.55;;;;;;;15.42;78.04;99431.53;8319633;28;20394;-53
2023/03/23 20:12:32;;;;;;;3.30;1.92;;;;;;;15.34;78.69;99418.03;8318828;28;20091;-60
2023/03/23 20:16:32;;;;;;;7.15;1.92;;;;;;;15.27;78.99;99422.56;8321069;28;20450;-59
2023/03/23 20:20:34;;;;;;;8.93;2.22;;;;;;;15.19;79.26;99414.56;8324108;28;20091;-59